地図

経路データ

SID SEASON NUMBER BASIN SUBBASIN NAME ISO_TIME NATURE LAT LON WMO_WIND WMO_PRES WMO_AGENCY TRACK_TYPE DIST2LAND LANDFALL IFLAG USA_AGENCY USA_ATCF_ID USA_LAT USA_LON USA_RECORD USA_STATUS USA_WIND USA_PRES USA_SSHS USA_R34_NE USA_R34_SE USA_R34_SW USA_R34_NW USA_R50_NE USA_R50_SE USA_R50_SW USA_R50_NW USA_R64_NE USA_R64_SE USA_R64_SW USA_R64_NW USA_POCI USA_ROCI USA_RMW USA_EYE TOKYO_LAT TOKYO_LON TOKYO_GRADE TOKYO_WIND TOKYO_PRES TOKYO_R50_DIR TOKYO_R50_LONG TOKYO_R50_SHORT TOKYO_R30_DIR TOKYO_R30_LONG TOKYO_R30_SHORT TOKYO_LAND CMA_LAT CMA_LON CMA_CAT CMA_WIND CMA_PRES HKO_LAT HKO_LON HKO_CAT HKO_WIND HKO_PRES NEWDELHI_LAT NEWDELHI_LON NEWDELHI_GRADE NEWDELHI_WIND NEWDELHI_PRES NEWDELHI_CI NEWDELHI_DP NEWDELHI_POCI REUNION_LAT REUNION_LON REUNION_TYPE REUNION_WIND REUNION_PRES REUNION_TNUM REUNION_CI REUNION_RMW REUNION_R34_NE REUNION_R34_SE REUNION_R34_SW REUNION_R34_NW REUNION_R50_NE REUNION_R50_SE REUNION_R50_SW REUNION_R50_NW REUNION_R64_NE REUNION_R64_SE REUNION_R64_SW REUNION_R64_NW BOM_LAT BOM_LON BOM_TYPE BOM_WIND BOM_PRES BOM_TNUM BOM_CI BOM_RMW BOM_R34_NE BOM_R34_SE BOM_R34_SW BOM_R34_NW BOM_R50_NE BOM_R50_SE BOM_R50_SW BOM_R50_NW BOM_R64_NE BOM_R64_SE BOM_R64_SW BOM_R64_NW BOM_ROCI BOM_POCI BOM_EYE BOM_POS_METHOD BOM_PRES_METHOD NADI_LAT NADI_LON NADI_CAT NADI_WIND NADI_PRES WELLINGTON_LAT WELLINGTON_LON WELLINGTON_WIND WELLINGTON_PRES DS824_LAT DS824_LON DS824_STAGE DS824_WIND DS824_PRES TD9636_LAT TD9636_LON TD9636_STAGE TD9636_WIND TD9636_PRES TD9635_LAT TD9635_LON TD9635_WIND TD9635_PRES TD9635_ROCI NEUMANN_LAT NEUMANN_LON NEUMANN_CLASS NEUMANN_WIND NEUMANN_PRES MLC_LAT MLC_LON MLC_CLASS MLC_WIND MLC_PRES USA_GUST BOM_GUST BOM_GUST_PER REUNION_GUST REUNION_GUST_PER USA_SEAHGT USA_SEARAD_NE USA_SEARAD_SE USA_SEARAD_SW USA_SEARAD_NW STORM_SPEED STORM_DIR
2020318N12257 2020 100 EP MM POLO 2020-11-12 18:00:00 NR 12.1000 -103.300 PROVISIONAL 628 626 O_____________ nhc_working_bt EP212020 12.1000 -103.300 DB 15 -3 12 286
2020318N12257 2020 100 EP MM POLO 2020-11-12 21:00:00 NR 12.2603 -103.865 PROVISIONAL 635 635 P_____________ EP212020 12.2603 -103.865 DB 15 -3 11 286
2020318N12257 2020 100 EP MM POLO 2020-11-13 00:00:00 NR 12.4000 -104.400 PROVISIONAL 653 651 O_____________ nhc_working_bt EP212020 12.4000 -104.400 DB 15 -3 10 284
2020318N12257 2020 100 EP MM POLO 2020-11-13 03:00:00 NR 12.5074 -104.880 PROVISIONAL 662 659 P_____________ EP212020 12.5074 -104.880 DB 15 -3 9 283
2020318N12257 2020 100 EP MM POLO 2020-11-13 06:00:00 NR 12.6000 -105.300 PROVISIONAL 666 662 O_____________ nhc_working_bt EP212020 12.6000 -105.300 DB 15 -3 8 284
2020318N12257 2020 100 EP MM POLO 2020-11-13 09:00:00 NR 12.6999 -105.680 PROVISIONAL 669 667 P_____________ EP212020 12.6999 -105.680 DB 17 -3 7 286
2020318N12257 2020 100 EP MM POLO 2020-11-13 12:00:00 NR 12.8000 -106.000 PROVISIONAL 671 670 O_____________ nhc_working_bt EP212020 12.8000 -106.000 DB 20 -3 1012 150 40 6 289
2020318N12257 2020 100 EP MM POLO 2020-11-13 15:00:00 NR 12.9000 -106.288 PROVISIONAL 674 669 P_____________ EP212020 12.9000 -106.288 DB 20 -3 1012 150 40 5 292
2020318N12257 2020 100 EP MM POLO 2020-11-13 18:00:00 DS 13.0000 -106.500 PROVISIONAL 674 669 O_____________ nhc_working_bt EP212020 13.0000 -106.500 LO 20 1009 -3 1012 150 40 4 302
2020318N12257 2020 100 EP MM POLO 2020-11-13 21:00:00 DS 13.1075 -106.623 PROVISIONAL 669 665 P_____________ EP212020 13.1075 -106.623 LO 20 1009 -3 1011 150 60 3 316
2020318N12257 2020 100 EP MM POLO 2020-11-14 00:00:00 DS 13.2000 -106.700 PROVISIONAL 665 661 O_____________ nhc_working_bt EP212020 13.2000 -106.700 LO 20 1009 -3 1011 150 80 2 311
2020318N12257 2020 100 EP MM POLO 2020-11-14 03:00:00 DS 13.2575 -106.800 PROVISIONAL 661 661 P_____________ EP212020 13.2575 -106.800 LO 20 1009 -3 1011 150 80 2 297
2020318N12257 2020 100 EP MM POLO 2020-11-14 06:00:00 DS 13.3000 -106.900 PROVISIONAL 667 667 O_____________ nhc_working_bt EP212020 13.3000 -106.900 LO 20 1009 -3 1011 150 80 2 296
2020318N12257 2020 100 EP MM POLO 2020-11-14 09:00:00 DS 13.3500 -107.000 PROVISIONAL 664 664 P_____________ EP212020 13.3500 -107.000 LO 20 1009 -3 1011 150 80 2 297
2020318N12257 2020 100 EP MM POLO 2020-11-14 12:00:00 DS 13.4000 -107.100 PROVISIONAL 670 670 O_____________ nhc_working_bt EP212020 13.4000 -107.100 LO 20 1009 -3 1011 150 80 2 297
2020318N12257 2020 100 EP MM POLO 2020-11-14 15:00:00 DS 13.4500 -107.200 PROVISIONAL 667 667 P_____________ EP212020 13.4500 -107.200 LO 22 1009 -3 1011 150 80 2 297
2020318N12257 2020 100 EP MM POLO 2020-11-14 18:00:00 DS 13.5000 -107.300 PROVISIONAL 673 671 O_____________ nhc_working_bt EP212020 13.5000 -107.300 LO 25 1009 -3 1011 150 80 3 294
2020318N12257 2020 100 EP MM POLO 2020-11-14 21:00:00 DS 13.5575 -107.445 PROVISIONAL 671 671 P_____________ EP212020 13.5575 -107.445 LO 25 1009 -3 1011 150 80 2 297
2020318N12257 2020 100 EP MM POLO 2020-11-15 00:00:00 DS 13.6000 -107.500 PROVISIONAL 677 671 O_____________ nhc_working_bt EP212020 13.6000 -107.500 LO 25 1009 -3 1011 150 80 1 52
2020318N12257 2020 100 EP MM POLO 2020-11-15 03:00:00 DS 13.6225 -107.368 PROVISIONAL 671 651 P_____________ EP212020 13.6225 -107.368 LO 25 1009 -3 1011 150 80 4 90
2020318N12257 2020 100 EP MM POLO 2020-11-15 06:00:00 DS 13.6000 -107.100 PROVISIONAL 651 642 O_____________ nhc_working_bt EP212020 13.6000 -107.100 LO 25 1009 -3 1011 150 80 6 103
2020318N12257 2020 100 EP MM POLO 2020-11-15 09:00:00 DS 13.4925 -106.787 PROVISIONAL 642 630 P_____________ EP212020 13.4925 -106.787 LO 25 1009 -3 1011 150 80 7 106
2020318N12257 2020 100 EP MM POLO 2020-11-15 12:00:00 DS 13.4000 -106.400 PROVISIONAL 630 605 O_____________ nhc_working_bt EP212020 13.4000 -106.400 LO 25 1009 -3 1011 150 80 9 95
2020318N12257 2020 100 EP MM POLO 2020-11-15 15:00:00 DS 13.4127 -105.860 PROVISIONAL 605 578 P_____________ EP212020 13.4127 -105.860 LO 25 1009 -3 1011 150 80 9 83
2020318N12257 2020 100 EP MM POLO 2020-11-15 18:00:00 DS 13.5000 -105.500 PROVISIONAL 578 567 O_____________ nhc_working_bt EP212020 13.5000 -105.500 LO 25 1009 -3 1011 150 80 3 45
2020318N12257 2020 100 EP MM POLO 2020-11-15 21:00:00 DS 13.6424 -105.622 PROVISIONAL 571 561 P_____________ EP212020 13.6424 -105.622 LO 22 1009 -3 1011 150 85 6 302
2020318N12257 2020 100 EP MM POLO 2020-11-16 00:00:00 DS 13.8000 -106.000 PROVISIONAL 570 565 O_____________ nhc_working_bt EP212020 13.8000 -106.000 LO 20 1009 -3 1011 150 90 8 291
2020318N12257 2020 100 EP MM POLO 2020-11-16 03:00:00 DS 13.9226 -106.385 PROVISIONAL 581 578 P_____________ EP212020 13.9226 -106.385 LO 20 1009 -3 1011 150 90 8 284
2020318N12257 2020 100 EP MM POLO 2020-11-16 06:00:00 DS 14.0000 -106.800 PROVISIONAL 596 596 O_____________ nhc_working_bt EP212020 14.0000 -106.800 LO 20 1009 -3 1011 150 90 7 277
2020318N12257 2020 100 EP MM POLO 2020-11-16 09:00:00 DS 14.0149 -107.150 PROVISIONAL 622 622 P_____________ EP212020 14.0149 -107.150 LO 22 1008 -3 1011 150 90 7 270
2020318N12257 2020 100 EP MM POLO 2020-11-16 12:00:00 DS 14.0000 -107.500 PROVISIONAL 643 643 O_____________ nhc_working_bt EP212020 14.0000 -107.500 LO 25 1008 -3 1011 150 90 7 268
2020318N12257 2020 100 EP MM POLO 2020-11-16 15:00:00 DS 13.9849 -107.878 PROVISIONAL 669 669 P_____________ EP212020 13.9849 -107.878 LO 25 1008 -3 1010 150 90 8 270
2020318N12257 2020 100 EP MM POLO 2020-11-16 18:00:00 DS 14.0000 -108.300 PROVISIONAL 691 691 O_____________ nhc_working_bt EP212020 14.0000 -108.300 LO 25 1008 -3 1010 150 90 9 277
2020318N12257 2020 100 EP MM POLO 2020-11-16 21:00:00 DS 14.0848 -108.755 PROVISIONAL 712 712 P_____________ EP212020 14.0848 -108.755 LO 25 1008 -3 1010 150 80 10 282
2020318N12257 2020 100 EP MM POLO 2020-11-17 00:00:00 DS 14.2000 -109.300 PROVISIONAL 736 736 O_____________ nhc_working_bt EP212020 14.2000 -109.300 LO 25 1008 -3 1010 150 70 12 280
2020318N12257 2020 100 EP MM POLO 2020-11-17 03:00:00 DS 14.2927 -109.985 PROVISIONAL 779 779 P_____________ EP212020 14.2927 -109.985 LO 25 1008 -3 1010 150 70 14 278
2020318N12257 2020 100 EP MM POLO 2020-11-17 06:00:00 DS 14.4000 -110.700 PROVISIONAL 825 825 O_____________ nhc_working_bt EP212020 14.4000 -110.700 LO 25 1008 -3 1010 150 70 13 281
2020318N12257 2020 100 EP MM POLO 2020-11-17 09:00:00 DS 14.5424 -111.337 PROVISIONAL 863 863 P_____________ EP212020 14.5424 -111.337 LO 25 1008 -3 1010 150 70 12 284
2020318N12257 2020 100 EP MM POLO 2020-11-17 12:00:00 DS 14.7000 -111.900 PROVISIONAL 896 896 O_____________ nhc_working_bt EP212020 14.7000 -111.900 LO 25 1008 -3 1010 150 70 10 287
2020318N12257 2020 100 EP MM POLO 2020-11-17 15:00:00 DS 14.8422 -112.365 PROVISIONAL 932 925 P_____________ EP212020 14.8422 -112.365 LO 27 1007 -3 1010 150 65 9 289
2020318N12257 2020 100 EP MM POLO 2020-11-17 18:00:00 TS 15.0000 -112.800 PROVISIONAL 931 924 O_____________ nhc_working_bt EP212020 15.0000 -112.800 TD 30 1007 -1 1010 150 60 40 10 292
2020318N12257 2020 100 EP MM POLO 2020-11-17 21:00:00 TS 15.2139 -113.306 PROVISIONAL 928 922 P_____________ EP212020 15.2000 -113.307 TD 30 1007 -1 1010 150 60 10 293
2020318N12257 2020 100 EP MM POLO 2020-11-18 00:00:00 TS 15.4000 -113.800 PROVISIONAL 928 928 O_____________ nhc_working_bt EP212020 15.4000 -113.800 TD 30 1007 -1 1010 150 60 40 10 288
2020318N12257 2020 100 EP MM POLO 2020-11-18 03:00:00 TS 15.5140 -114.249 PROVISIONAL 937 937 P_____________ EP212020 15.5573 -114.200 TD 32 1006 -1 1010 150 45 9 286
2020318N12257 2020 100 EP MM POLO 2020-11-18 06:00:00 TS 15.6333 -114.667 PROVISIONAL 953 944 O_____________ nhc_working_bt EP212020 15.7000 -114.600 TS 35 1006 0 30 1010 150 30 40 8 293
2020318N12257 2020 100 EP MM POLO 2020-11-18 09:00:00 TS 15.8422 -115.039 PROVISIONAL 951 944 P_____________ EP212020 15.8424 -115.078 TS 37 1005 0 30 1010 135 30 9 299
2020318N12257 2020 100 EP MM POLO 2020-11-18 12:00:00 TS 16.0667 -115.467 PROVISIONAL 954 954 O_____________ nhc_working_bt EP212020 16.0000 -115.600 TS 40 1004 0 30 20 1010 120 30 50 11 292
2020318N12257 2020 100 EP MM POLO 2020-11-18 15:00:00 TS 16.2360 -116.061 PROVISIONAL 984 976 P_____________ EP212020 16.1924 -116.143 TS 40 1004 0 30 20 1010 120 30 12 286
2020318N12257 2020 100 EP MM POLO 2020-11-18 18:00:00 TS 16.4000 -116.700 PROVISIONAL 1009 1009 O_____________ nhc_working_bt EP212020 16.4000 -116.700 TS 40 1004 0 30 20 1010 120 30 50 12 288
2020318N12257 2020 100 EP MM POLO 2020-11-18 21:00:00 TS 16.6098 -117.267 PROVISIONAL 1038 1038 P_____________ EP212020 16.6149 -117.257 TS 40 1004 0 30 20 1010 120 25 11 291
2020318N12257 2020 100 EP MM POLO 2020-11-19 00:00:00 TS 16.8000 -117.800 PROVISIONAL 1062 1062 O_____________ nhc_working_bt EP212020 16.8000 -117.800 TS 40 1004 0 30 20 1010 120 20 50 12 30 30 10 287
2020318N12257 2020 100 EP MM POLO 2020-11-19 03:00:00 TS 16.9223 -118.308 PROVISIONAL 1084 1084 P_____________ EP212020 16.9223 -118.308 TS 37 1004 0 30 20 1010 120 25 12 30 30 10 282
2020318N12257 2020 100 EP MM POLO 2020-11-19 06:00:00 TS 17.0000 -118.800 PROVISIONAL 1106 1106 O_____________ nhc_working_bt EP212020 17.0000 -118.800 TS 35 1005 0 30 20 1010 120 30 45 12 30 30 10 279
2020318N12257 2020 100 EP MM POLO 2020-11-19 09:00:00 TS 17.0724 -119.300 PROVISIONAL 1131 1131 P_____________ EP212020 17.0724 -119.300 TS 32 1006 -1 1010 105 30 10 276
2020318N12257 2020 100 EP MM POLO 2020-11-19 12:00:00 TS 17.1000 -119.800 PROVISIONAL 1166 1166 O_____________ nhc_working_bt EP212020 17.1000 -119.800 TD 30 1007 -1 1011 90 30 40 10 270
2020318N12257 2020 100 EP MM POLO 2020-11-19 15:00:00 TS 17.0677 -120.300 PROVISIONAL 1202 1202 P_____________ EP212020 17.0677 -120.300 TD 30 1007 -1 1011 90 30 10 264
2020318N12257 2020 100 EP MM POLO 2020-11-19 18:00:00 DS 17.0000 -120.800 PROVISIONAL 1247 O_____________ nhc_working_bt EP212020 17.0000 -120.800 LO 30 1007 -3 1011 90 30 40 10 262

IBTrACS Databaseについて

本データベースは、米国NOAAが公開する1842年以降の世界の熱帯低気圧のベストトラックデータアーカイブInternational Best Track Archive for Climate Stewardship (IBTrACS)を、ウェブで閲覧しやすい形式に変換したものです。

最終更新日:2021-10-25